createdAt,value
2023-05-18T00:00:16.088Z,70.03
2023-05-18T00:02:44.254Z,70.58
2023-05-18T00:05:13.738Z,68.62
2023-05-18T00:07:41.509Z,68.04
2023-05-18T00:10:11.403Z,69.01
2023-05-18T00:12:39.530Z,70.76
2023-05-18T00:15:09.109Z,67.74
2023-05-18T00:17:39.027Z,67.03
2023-05-18T00:20:10.485Z,71.70
2023-05-18T00:22:42.705Z,71.52
2023-05-18T00:25:10.749Z,70.33
2023-05-18T00:27:38.753Z,70.62
2023-05-18T00:30:08.383Z,71.05
2023-05-18T00:32:36.180Z,70.95
2023-05-18T00:35:04.340Z,69.31
2023-05-18T00:37:32.143Z,69.41
2023-05-18T00:40:01.561Z,73.01
2023-05-18T00:42:29.719Z,73.19
2023-05-18T00:44:57.634Z,70.52
2023-05-18T00:47:25.880Z,71.75
2023-05-18T00:49:54.356Z,77.31
2023-05-18T00:52:22.476Z,73.77
2023-05-18T00:54:50.879Z,75.47
2023-05-18T00:57:21.458Z,74.67
2023-05-18T00:59:49.531Z,75.01
2023-05-18T01:02:17.610Z,74.44
2023-05-18T01:05:14.171Z,75.06
2023-05-18T01:07:43.479Z,75.32
2023-05-18T01:10:12.384Z,75.49
2023-05-18T01:12:45.882Z,74.50
2023-05-18T01:15:16.700Z,73.57
2023-05-18T01:17:52.473Z,74.06
2023-05-18T01:20:24.800Z,72.97
2023-05-18T01:23:10.487Z,74.13
2023-05-18T01:25:48.434Z,73.05
2023-05-18T01:28:19.750Z,70.70
2023-05-18T01:30:47.902Z,71.94
2023-05-18T01:33:15.661Z,70.38
2023-05-18T01:35:48.092Z,72.37
2023-05-18T01:38:17.636Z,69.40
2023-05-18T01:40:51.681Z,73.93
2023-05-18T01:43:24.349Z,75.52
2023-05-18T01:45:57.841Z,74.34
2023-05-18T01:48:26.981Z,72.94
2023-05-18T01:50:57.794Z,76.12
2023-05-18T01:53:30.244Z,75.76
2023-05-18T01:55:59.103Z,76.75
2023-05-18T01:58:28.938Z,75.56
2023-05-18T02:00:57.746Z,77.54
2023-05-18T02:03:25.707Z,76.42
2023-05-18T02:05:53.583Z,76.79
2023-05-18T02:08:21.630Z,76.70
2023-05-18T02:10:49.913Z,72.93
2023-05-18T02:13:17.657Z,75.29
2023-05-18T02:15:47.115Z,75.78
2023-05-18T02:18:14.967Z,77.31
2023-05-18T02:20:42.928Z,76.81
2023-05-18T02:23:12.214Z,76.13
2023-05-18T02:25:41.999Z,77.22
2023-05-18T02:28:09.765Z,79.33
2023-05-18T02:30:37.520Z,76.63
2023-05-18T02:33:09.284Z,76.12
2023-05-18T02:35:37.327Z,76.58
2023-05-18T02:38:05.458Z,78.11
2023-05-18T02:40:33.181Z,76.43
2023-05-18T02:43:01.335Z,75.88
2023-05-18T02:45:29.274Z,74.66
2023-05-18T02:47:57.271Z,73.75
2023-05-18T02:50:26.810Z,75.69
2023-05-18T02:52:55.942Z,73.18
2023-05-18T02:55:44.229Z,75.29
2023-05-18T02:58:14.896Z,76.57
2023-05-18T03:00:43.244Z,74.47
2023-05-18T03:03:16.249Z,75.94
2023-05-18T03:05:48.139Z,76.14
2023-05-18T03:08:16.188Z,72.46
2023-05-18T03:11:02.707Z,75.10
2023-05-18T03:13:30.429Z,73.73
2023-05-18T03:15:58.724Z,75.46
2023-05-18T03:18:27.092Z,76.14
2023-05-18T03:21:01.887Z,75.03
2023-05-18T03:23:30.213Z,75.35
2023-05-18T03:25:58.272Z,74.56
2023-05-18T03:28:26.372Z,75.17
2023-05-18T03:30:54.460Z,73.54
2023-05-18T03:33:24.521Z,72.52
2023-05-18T03:35:52.408Z,72.22
2023-05-18T03:38:22.056Z,73.66
2023-05-18T03:40:49.923Z,72.62
2023-05-18T03:43:18.045Z,73.13
2023-05-18T03:45:46.124Z,73.07
2023-05-18T03:48:14.487Z,69.92
2023-05-18T03:50:42.553Z,67.92
2023-05-18T03:53:10.918Z,70.95
2023-05-18T03:55:40.323Z,72.06
2023-05-18T03:58:08.522Z,74.00
2023-05-18T04:00:36.622Z,74.22
2023-05-18T04:03:04.774Z,73.45
2023-05-18T04:05:32.809Z,74.06
2023-05-18T04:08:00.915Z,70.14
2023-05-18T04:10:29.475Z,69.90
2023-05-18T04:12:58.745Z,69.90
2023-05-18T04:15:28.115Z,66.73
2023-05-18T04:17:56.339Z,66.39
2023-05-18T04:20:24.795Z,65.14
2023-05-18T04:22:52.523Z,65.80
2023-05-18T04:25:32.138Z,64.86
2023-05-18T04:28:03.180Z,64.51
2023-05-18T04:30:31.702Z,64.41
2023-05-18T04:33:00.177Z,64.86
2023-05-18T04:35:29.500Z,66.20
2023-05-18T04:37:57.702Z,65.39
2023-05-18T04:40:26.116Z,65.47
2023-05-18T04:42:53.815Z,64.31
2023-05-18T04:45:23.193Z,64.68
2023-05-18T04:47:54.045Z,63.09
2023-05-18T04:50:24.313Z,63.57
2023-05-18T04:52:53.659Z,63.43
2023-05-18T04:55:26.331Z,64.01
2023-05-18T04:57:56.665Z,63.62
2023-05-18T05:00:27.165Z,64.02
2023-05-18T05:02:55.422Z,64.88
2023-05-18T05:05:23.724Z,63.79
2023-05-18T05:07:52.694Z,62.92
2023-05-18T05:10:20.828Z,65.23
2023-05-18T05:12:51.261Z,63.85
2023-05-18T05:15:19.880Z,66.02
2023-05-18T05:17:50.135Z,65.25
2023-05-18T05:20:18.910Z,66.11
2023-05-18T05:22:46.805Z,65.71
2023-05-18T05:25:14.942Z,64.07
2023-05-18T05:27:43.325Z,65.50
2023-05-18T05:30:12.138Z,65.70
2023-05-18T05:32:40.003Z,65.08
2023-05-18T05:35:11.373Z,67.71
2023-05-18T05:37:41.666Z,70.02
2023-05-18T05:40:10.682Z,66.43
2023-05-18T05:42:38.805Z,65.83
2023-05-18T05:45:07.789Z,67.00
2023-05-18T05:47:36.509Z,64.24
2023-05-18T05:50:04.976Z,64.70
2023-05-18T05:52:34.313Z,65.50
2023-05-18T05:55:05.337Z,67.27
2023-05-18T05:57:33.824Z,69.26
2023-05-18T06:00:01.969Z,64.45
2023-05-18T06:02:30.252Z,63.85
2023-05-18T06:04:58.054Z,65.57
2023-05-18T06:07:25.799Z,62.34
2023-05-18T06:09:55.475Z,65.02
2023-05-18T06:12:23.186Z,64.12
2023-05-18T06:14:52.864Z,66.30
2023-05-18T06:17:20.706Z,62.64
2023-05-18T06:19:48.708Z,61.51
2023-05-18T06:22:16.565Z,63.24
2023-05-18T06:24:44.599Z,60.69
2023-05-18T06:27:15.246Z,63.20
2023-05-18T06:29:43.052Z,59.34
2023-05-18T06:32:10.931Z,61.89
2023-05-18T06:34:38.967Z,60.32
2023-05-18T06:37:06.748Z,61.38
2023-05-18T06:39:34.701Z,60.18
2023-05-18T06:42:02.776Z,59.28
2023-05-18T06:44:31.933Z,58.08
2023-05-18T06:46:59.776Z,60.95
2023-05-18T06:49:27.507Z,58.19
2023-05-18T06:51:55.492Z,61.50
2023-05-18T06:54:25.060Z,57.42
2023-05-18T06:57:05.457Z,59.97
2023-05-18T06:59:36.007Z,59.49
2023-05-18T07:02:03.996Z,58.46
2023-05-18T07:04:32.251Z,58.34
2023-05-18T07:07:00.260Z,58.89
2023-05-18T07:09:27.989Z,58.81
2023-05-18T07:11:55.752Z,57.75
2023-05-18T07:14:24.269Z,56.94
2023-05-18T07:17:35.478Z,57.06
2023-05-18T07:20:06.664Z,57.83
2023-05-18T07:22:34.552Z,56.38
2023-05-18T07:25:02.776Z,55.99
2023-05-18T07:27:30.636Z,56.01
2023-05-18T07:29:58.308Z,56.03
2023-05-18T07:32:26.238Z,54.86
2023-05-18T07:35:08.215Z,54.75
2023-05-18T07:37:35.896Z,53.09
2023-05-18T07:40:05.078Z,56.75
2023-05-18T07:42:34.124Z,52.79
2023-05-18T07:45:01.862Z,51.88
2023-05-18T07:47:29.740Z,52.00
2023-05-18T07:49:58.478Z,50.63
2023-05-18T07:52:28.658Z,48.24
2023-05-18T07:54:57.048Z,49.39
2023-05-18T07:57:25.422Z,48.01
2023-05-18T07:59:53.638Z,47.42
2023-05-18T08:02:21.607Z,46.23
2023-05-18T08:04:49.326Z,47.87
2023-05-18T08:07:22.300Z,48.70
2023-05-18T08:09:53.109Z,46.28
2023-05-18T08:12:21.530Z,46.53
2023-05-18T08:14:49.581Z,46.93
2023-05-18T08:17:18.531Z,47.54
2023-05-18T08:19:47.459Z,46.85
2023-05-18T08:22:17.550Z,47.06
2023-05-18T08:24:45.410Z,44.44
2023-05-18T08:27:14.469Z,48.55
2023-05-18T08:29:42.840Z,45.94
2023-05-18T08:32:10.711Z,49.79
2023-05-18T08:34:38.720Z,46.61
2023-05-18T08:37:06.750Z,47.44
2023-05-18T08:39:35.008Z,45.82
2023-05-18T08:42:04.694Z,49.79
2023-05-18T08:44:40.279Z,46.76
2023-05-18T08:47:11.105Z,45.29
2023-05-18T08:49:39.509Z,46.14
2023-05-18T08:52:10.171Z,43.46
2023-05-18T08:54:38.788Z,47.76
2023-05-18T08:57:10.190Z,45.25
2023-05-18T08:59:42.093Z,46.52
2023-05-18T09:02:10.708Z,45.30
2023-05-18T09:04:41.126Z,45.54
2023-05-18T09:07:10.602Z,45.55
2023-05-18T09:09:39.700Z,46.83
2023-05-18T09:12:08.290Z,48.74
2023-05-18T09:14:36.324Z,48.46
2023-05-18T09:17:07.436Z,46.33
2023-05-18T09:19:36.181Z,48.60
2023-05-18T09:24:40.391Z,48.08
2023-05-18T09:27:08.038Z,48.20
2023-05-18T09:29:35.768Z,45.34
2023-05-18T09:32:04.632Z,46.26
2023-05-18T09:34:43.099Z,45.41
2023-05-18T09:37:11.141Z,49.25
2023-05-18T09:39:38.758Z,46.98
2023-05-18T09:42:06.934Z,48.24
2023-05-18T09:44:35.371Z,45.63
2023-05-18T09:47:03.919Z,47.33
2023-05-18T09:49:31.827Z,47.28
2023-05-18T09:52:01.080Z,46.76
2023-05-18T09:54:28.805Z,45.83
2023-05-18T09:57:09.439Z,47.72
2023-05-18T09:59:38.260Z,48.28
2023-05-18T10:02:08.696Z,47.35
2023-05-18T10:04:37.353Z,48.01
2023-05-18T10:07:11.039Z,45.07
2023-05-18T10:09:38.696Z,45.34
2023-05-18T10:12:12.046Z,43.71
2023-05-18T10:14:42.430Z,45.00
2023-05-18T10:17:15.835Z,44.52
2023-05-18T10:19:44.351Z,43.97
2023-05-18T10:22:16.751Z,48.14
2023-05-18T10:24:47.072Z,46.38
2023-05-18T10:27:15.974Z,44.49
2023-05-18T10:29:43.995Z,45.76
2023-05-18T10:32:13.530Z,44.24
2023-05-18T10:34:41.999Z,44.99
2023-05-18T10:37:11.863Z,46.88
2023-05-18T10:39:45.657Z,46.77
2023-05-18T10:42:15.347Z,44.57
2023-05-18T10:44:43.406Z,44.30
2023-05-18T10:47:12.269Z,43.63
2023-05-18T10:49:40.993Z,45.01
2023-05-18T10:52:09.688Z,43.70
2023-05-18T10:54:38.192Z,43.72
2023-05-18T10:57:07.753Z,42.00
2023-05-18T10:59:35.649Z,43.58
2023-05-18T11:02:03.546Z,43.61
2023-05-18T11:04:32.448Z,45.91
2023-05-18T11:07:02.150Z,43.64
2023-05-18T11:09:30.400Z,42.59
2023-05-18T11:11:58.994Z,42.37
2023-05-18T11:14:30.604Z,42.41
2023-05-18T11:17:16.388Z,45.69
2023-05-18T11:20:13.003Z,40.98
2023-05-18T11:22:49.241Z,41.69
2023-05-18T11:25:39.280Z,41.35
2023-05-18T11:28:08.793Z,42.78
2023-05-18T11:30:50.269Z,43.01
2023-05-18T11:33:23.115Z,42.49
2023-05-18T11:35:59.147Z,42.15
2023-05-18T11:38:46.870Z,42.76
2023-05-18T11:41:29.842Z,42.07
2023-05-18T11:44:06.634Z,43.45
2023-05-18T11:46:35.850Z,42.87
2023-05-18T11:49:04.809Z,38.66
2023-05-18T11:51:33.353Z,40.80
2023-05-18T11:54:01.578Z,39.69
2023-05-18T11:59:15.080Z,38.62
2023-05-18T12:01:44.388Z,44.01
2023-05-18T12:04:12.498Z,42.43
2023-05-18T12:06:40.239Z,39.60
2023-05-18T12:09:08.901Z,39.77
2023-05-18T12:11:36.645Z,39.85
2023-05-18T12:14:04.679Z,39.56
2023-05-18T12:16:33.317Z,40.01
2023-05-18T12:19:02.412Z,38.83
2023-05-18T12:21:30.075Z,38.67
2023-05-18T12:26:46.375Z,40.01
2023-05-18T12:29:19.910Z,36.94
2023-05-18T12:31:49.135Z,35.86
2023-05-18T12:34:18.271Z,36.65
2023-05-18T12:36:55.452Z,35.86
2023-05-18T12:39:23.431Z,34.53
2023-05-18T12:41:51.130Z,34.97
2023-05-18T12:44:18.953Z,32.17
2023-05-18T12:46:46.834Z,34.75
2023-05-18T12:49:14.774Z,36.12
2023-05-18T12:51:43.881Z,36.63
2023-05-18T12:54:11.713Z,34.85
2023-05-18T12:56:52.788Z,34.88
2023-05-18T12:59:20.721Z,33.92
2023-05-18T13:01:49.360Z,33.74
2023-05-18T13:04:17.254Z,33.86
2023-05-18T13:06:46.848Z,32.78
2023-05-18T13:09:15.017Z,34.08
2023-05-18T13:11:49.865Z,34.00
2023-05-18T13:14:22.477Z,35.36
2023-05-18T13:16:53.167Z,35.67
2023-05-18T13:19:20.930Z,35.64
2023-05-18T13:21:57.014Z,34.68
2023-05-18T13:24:24.687Z,34.41
2023-05-18T13:26:52.405Z,33.42
2023-05-18T13:29:20.098Z,33.13
2023-05-18T13:31:47.947Z,31.28
2023-05-18T13:34:16.805Z,31.19
2023-05-18T13:37:05.256Z,33.29
2023-05-18T13:39:34.350Z,32.57
2023-05-18T13:42:03.202Z,32.85
2023-05-18T13:44:30.986Z,29.94
2023-05-18T13:46:58.721Z,32.96
2023-05-18T13:49:26.929Z,31.60
2023-05-18T13:51:54.553Z,32.61
2023-05-18T13:54:22.560Z,32.17
2023-05-18T13:56:51.749Z,32.67
2023-05-18T13:59:19.775Z,32.87
2023-05-18T14:01:47.803Z,31.65
2023-05-18T14:04:15.548Z,30.71
2023-05-18T14:06:43.399Z,31.38
2023-05-18T14:09:11.307Z,30.87
2023-05-18T14:11:38.973Z,31.27
2023-05-18T14:14:08.163Z,31.13
2023-05-18T14:16:36.536Z,31.86
2023-05-18T14:19:04.906Z,32.74
2023-05-18T14:21:32.615Z,32.58
2023-05-18T14:24:03.620Z,30.39
2023-05-18T14:26:31.275Z,32.27
2023-05-18T14:28:58.959Z,33.97
2023-05-18T14:31:28.062Z,31.97
2023-05-18T14:33:56.076Z,33.01
2023-05-18T14:36:24.221Z,29.67
2023-05-18T14:38:52.248Z,29.88
2023-05-18T14:41:21.208Z,30.07
2023-05-18T14:43:53.697Z,30.80
2023-05-18T14:46:21.520Z,29.48
2023-05-18T14:48:50.624Z,31.57
2023-05-18T14:51:18.451Z,30.96
2023-05-18T14:53:46.135Z,29.83
2023-05-18T14:56:13.924Z,30.17
2023-05-18T14:58:41.685Z,31.47
2023-05-18T15:01:09.350Z,29.67
2023-05-18T15:03:37.140Z,31.90
2023-05-18T15:06:06.537Z,30.04
2023-05-18T15:08:34.239Z,31.01
2023-05-18T15:11:01.927Z,29.84
2023-05-18T15:13:29.636Z,28.06
2023-05-18T15:15:57.754Z,29.37
2023-05-18T15:18:25.898Z,27.98
2023-05-18T15:20:53.776Z,27.10
2023-05-18T15:23:22.926Z,30.35
2023-05-18T15:25:51.746Z,27.71
2023-05-18T15:28:19.480Z,26.51
2023-05-18T15:30:47.143Z,29.34
2023-05-18T15:33:14.942Z,29.96
2023-05-18T15:35:42.641Z,28.36
2023-05-18T15:38:10.505Z,27.84
2023-05-18T15:40:39.599Z,28.42
2023-05-18T15:43:07.263Z,25.88
2023-05-18T15:45:35.176Z,28.45
2023-05-18T15:48:02.893Z,27.37
2023-05-18T15:50:30.733Z,26.53
2023-05-18T15:52:58.638Z,26.53
2023-05-18T15:55:26.328Z,27.72
2023-05-18T15:57:55.518Z,28.35
2023-05-18T16:00:23.818Z,27.24
2023-05-18T16:02:51.593Z,29.11
2023-05-18T16:05:19.548Z,27.07
2023-05-18T16:07:47.307Z,28.62
2023-05-18T16:10:15.396Z,27.84
2023-05-18T16:12:43.111Z,28.90
2023-05-18T16:15:12.978Z,29.28
2023-05-18T16:17:40.690Z,28.04
2023-05-18T16:20:09.493Z,28.23
2023-05-18T16:22:37.323Z,28.78
2023-05-18T16:25:05.314Z,27.13
2023-05-18T16:27:33.066Z,29.77
2023-05-18T16:30:00.853Z,28.53
2023-05-18T16:32:31.581Z,29.88
2023-05-18T16:34:59.622Z,29.06
2023-05-18T16:37:27.308Z,28.42
2023-05-18T16:39:54.970Z,28.36
2023-05-18T16:42:22.987Z,28.49
2023-05-18T16:44:50.923Z,30.27
2023-05-18T16:47:18.595Z,28.47
2023-05-18T16:49:47.738Z,27.12
2023-05-18T16:52:18.322Z,30.59
2023-05-18T16:54:46.167Z,26.74
2023-05-18T16:57:14.079Z,32.07
2023-05-18T16:59:41.837Z,31.70
2023-05-18T17:02:13.235Z,34.27
2023-05-18T17:04:42.904Z,34.08
2023-05-18T17:07:12.436Z,34.88
2023-05-18T17:09:42.809Z,34.98
2023-05-18T17:12:11.265Z,36.68
2023-05-18T17:14:39.197Z,36.69
2023-05-18T17:17:07.283Z,36.34
2023-05-18T17:19:36.230Z,36.82
2023-05-18T17:22:04.550Z,37.27
2023-05-18T17:24:33.616Z,36.67
2023-05-18T17:27:06.554Z,39.22
2023-05-18T17:29:34.258Z,38.26
2023-05-18T17:32:02.104Z,38.41
2023-05-18T17:34:30.634Z,39.08
2023-05-18T17:36:58.654Z,40.30
2023-05-18T17:39:26.439Z,39.01
2023-05-18T17:41:55.872Z,39.25
2023-05-18T17:44:23.576Z,40.08
2023-05-18T17:46:51.323Z,41.01
2023-05-18T17:49:19.360Z,40.12
2023-05-18T17:51:47.227Z,41.17
2023-05-18T17:54:15.198Z,42.63
2023-05-18T17:56:42.952Z,41.46
2023-05-18T17:59:12.565Z,41.82
2023-05-18T18:01:40.360Z,42.60
2023-05-18T18:04:08.163Z,41.70
2023-05-18T18:06:36.729Z,43.20
2023-05-18T18:09:05.808Z,43.74
2023-05-18T18:11:33.538Z,44.26
2023-05-18T18:14:02.472Z,44.25
2023-05-18T18:16:31.861Z,46.95
2023-05-18T18:18:59.634Z,46.63
2023-05-18T18:21:27.369Z,47.08
2023-05-18T18:23:55.172Z,46.44
2023-05-18T18:26:22.922Z,46.24
2023-05-18T18:28:51.245Z,47.23
2023-05-18T18:31:20.723Z,46.96
2023-05-18T18:33:50.914Z,48.97
2023-05-18T18:36:19.171Z,50.12
2023-05-18T18:38:47.230Z,50.93
2023-05-18T18:41:17.309Z,52.27
2023-05-18T18:43:47.132Z,51.34
2023-05-18T18:46:14.798Z,53.04
2023-05-18T18:51:39.520Z,54.18
2023-05-18T18:54:07.319Z,54.05
2023-05-18T18:56:35.217Z,53.88
2023-05-18T18:59:02.969Z,56.01
2023-05-18T19:01:31.062Z,54.99
2023-05-18T19:03:58.826Z,55.23
2023-05-18T19:06:27.203Z,57.83
2023-05-18T19:08:56.505Z,57.13
2023-05-18T19:11:24.349Z,56.60
2023-05-18T19:13:52.125Z,58.19
2023-05-18T19:16:21.580Z,56.61
2023-05-18T19:18:49.530Z,57.76
2023-05-18T19:21:20.220Z,58.12
2023-05-18T19:23:47.885Z,59.67
2023-05-18T19:26:17.291Z,60.56
2023-05-18T19:28:44.947Z,59.36
2023-05-18T19:31:12.690Z,59.49
2023-05-18T19:33:40.369Z,58.71
2023-05-18T19:36:08.067Z,60.80
2023-05-18T19:38:35.692Z,58.42
2023-05-18T19:41:03.327Z,59.92
2023-05-18T19:43:32.420Z,59.98
2023-05-18T19:46:00.231Z,62.16
2023-05-18T19:48:28.412Z,60.33
2023-05-18T19:50:56.171Z,60.24
2023-05-18T19:53:23.969Z,61.67
2023-05-18T19:55:51.897Z,62.18
2023-05-18T19:58:19.506Z,62.08
2023-05-18T20:00:48.670Z,61.84
2023-05-18T20:03:16.760Z,59.20
2023-05-18T20:05:44.512Z,60.04
2023-05-18T20:08:12.822Z,58.91
2023-05-18T20:10:40.645Z,60.35
2023-05-18T20:13:08.504Z,59.70
2023-05-18T20:15:37.126Z,60.16
2023-05-18T20:18:07.205Z,61.10
2023-05-18T20:20:35.830Z,60.24
2023-05-18T20:23:03.800Z,60.86
2023-05-18T20:25:34.897Z,59.95
2023-05-18T20:28:03.226Z,62.95
2023-05-18T20:30:31.157Z,63.29
2023-05-18T20:33:00.076Z,62.10
2023-05-18T20:35:29.166Z,63.63
2023-05-18T20:37:57.357Z,62.85
2023-05-18T20:40:25.187Z,62.51
2023-05-18T20:42:54.369Z,62.25
2023-05-18T20:45:22.728Z,61.83
2023-05-18T20:47:51.613Z,61.65
2023-05-18T20:50:19.530Z,61.47
2023-05-18T20:52:48.625Z,60.95
2023-05-18T20:55:16.389Z,59.59
2023-05-18T20:57:46.156Z,59.56
2023-05-18T21:00:14.548Z,60.62
2023-05-18T21:02:42.503Z,61.75
2023-05-18T21:05:10.272Z,62.31
2023-05-18T21:07:40.109Z,63.90
2023-05-18T21:10:10.510Z,64.29
2023-05-18T21:12:38.621Z,64.53
2023-05-18T21:15:07.398Z,63.72
2023-05-18T21:17:35.125Z,63.74
2023-05-18T21:20:02.859Z,62.91
2023-05-18T21:22:30.697Z,63.37
2023-05-18T21:24:58.304Z,63.97
2023-05-18T21:27:27.468Z,62.37
2023-05-18T21:29:55.117Z,64.68
2023-05-18T21:32:22.881Z,63.55
2023-05-18T21:34:50.866Z,64.58
2023-05-18T21:37:18.491Z,64.61
2023-05-18T21:39:46.737Z,62.67
2023-05-18T21:42:14.384Z,61.87
2023-05-18T21:44:43.404Z,63.67
2023-05-18T21:47:11.056Z,63.43
2023-05-18T21:49:38.671Z,63.57
2023-05-18T21:52:06.529Z,64.05
2023-05-18T21:54:35.395Z,64.24
2023-05-18T21:57:03.198Z,63.61
2023-05-18T21:59:31.113Z,62.76
2023-05-18T22:02:00.745Z,62.46
2023-05-18T22:04:28.789Z,64.22
2023-05-18T22:06:56.463Z,61.64
2023-05-18T22:09:24.084Z,61.77
2023-05-18T22:11:51.743Z,63.05
2023-05-18T22:14:19.388Z,63.09
2023-05-18T22:16:47.561Z,63.30
2023-05-18T22:19:16.729Z,66.50
2023-05-18T22:21:44.492Z,65.10
2023-05-18T22:24:12.330Z,64.23
2023-05-18T22:26:39.958Z,65.57
2023-05-18T22:29:07.597Z,64.76
2023-05-18T22:31:35.393Z,63.10
2023-05-18T22:34:03.087Z,63.46
2023-05-18T22:36:33.176Z,61.88
2023-05-18T22:39:00.858Z,61.45
2023-05-18T22:41:28.563Z,63.83
2023-05-18T22:43:56.586Z,62.96
2023-05-18T22:46:24.254Z,64.15
2023-05-18T22:48:53.423Z,62.97
2023-05-18T22:51:23.373Z,66.32
2023-05-18T22:53:52.395Z,68.71
2023-05-18T22:56:21.007Z,65.74
2023-05-18T22:58:48.776Z,67.14
2023-05-18T23:01:16.424Z,67.16
2023-05-18T23:03:44.093Z,67.38
2023-05-18T23:06:11.740Z,66.23
2023-05-18T23:08:39.358Z,64.75
2023-05-18T23:11:11.532Z,66.61
2023-05-18T23:13:39.306Z,67.32
2023-05-18T23:16:10.435Z,65.42
2023-05-18T23:18:38.788Z,64.87
2023-05-18T23:21:09.042Z,64.72
2023-05-18T23:23:36.870Z,65.21
2023-05-18T23:26:04.634Z,64.08
2023-05-18T23:28:33.657Z,62.87
2023-05-18T23:31:01.466Z,66.91
2023-05-18T23:33:29.709Z,65.17
2023-05-18T23:36:02.428Z,64.75
2023-05-18T23:38:34.593Z,63.01
2023-05-18T23:41:02.882Z,65.73
2023-05-18T23:43:31.081Z,65.08
2023-05-18T23:46:01.073Z,64.52
2023-05-18T23:48:31.031Z,67.77
2023-05-18T23:51:02.182Z,63.46
2023-05-18T23:53:31.356Z,63.87
2023-05-18T23:56:00.019Z,63.84
2023-05-18T23:58:29.657Z,63.17
